Station Historical Data
Daily Summary for March 13, 2012 Units:  English    Metric   Both
« Previous Day
Next Day »
Daily Weekly Monthly Yearly Custom
  High: Low: Average:
Temperature: 76.6 °F 61.9 °F 67.6 °F
Dew Point: 63.6 °F 55.0 °F 60.1 °F
Humidity: 94% 48% 78%
Wind Speed: 13.0mph 0.0mph 4mph
Wind Gust: 13.0mph - -
Wind- - South
Pressure: 30.18 in 30.09 in -
Precipitation: 0.00 in    
Historical Graphs
 
 
Tabular Data for March 13, 2012
Time Temperature Dew Point Pressure Wind Wind Speed Wind Gust Humidity Rainfall Rate (Hourly) Conditions
00:00 62.3 °F 60.0 °F 30.12 in SSE 4.0 mph 10.0 mph 92% 0.00 in
00:05 62.2 °F 59.8 °F 30.12 in SSE 6.0 mph 8.0 mph 92% 0.00 in
00:10 62.1 °F 59.8 °F 30.12 in SSE 6.0 mph 7.0 mph 92% 0.00 in
00:16 62.0 °F 59.7 °F 30.12 in SE 6.0 mph 8.0 mph 92% 0.00 in
00:21 62.1 °F 60.1 °F 30.12 in SSE 5.0 mph 8.0 mph 93% 0.00 in
00:26 62.1 °F 60.1 °F 30.12 in SE 6.0 mph 9.0 mph 93% 0.00 in
00:31 62.1 °F 60.1 °F 30.12 in SSE 7.0 mph 9.0 mph 93% 0.00 in
00:36 62.1 °F 60.1 °F 30.12 in SE 6.0 mph 8.0 mph 93% 0.00 in
00:41 62.1 °F 60.1 °F 30.12 in SSE 5.0 mph 8.0 mph 93% 0.00 in
00:46 62.1 °F 60.1 °F 30.12 in SSE 7.0 mph 7.0 mph 93% 0.00 in
00:51 62.2 °F 60.2 °F 30.12 in SE 6.0 mph 9.0 mph 93% 0.00 in
00:56 62.2 °F 60.2 °F 30.12 in SE 6.0 mph 9.0 mph 93% 0.00 in
01:01 62.2 °F 60.2 °F 30.12 in SE 6.0 mph 9.0 mph 93% 0.00 in
01:06 62.2 °F 60.2 °F 30.12 in SE 4.0 mph 9.0 mph 93% 0.00 in
01:11 62.1 °F 60.1 °F 30.12 in SSE 5.0 mph 6.0 mph 93% 0.00 in
01:16 62.0 °F 60.0 °F 30.12 in South 7.0 mph 9.0 mph 93% 0.00 in
01:21 61.9 °F 59.9 °F 30.12 in SSE 5.0 mph 7.0 mph 93% 0.00 in
01:26 61.9 °F 59.9 °F 30.12 in SE 8.0 mph 9.0 mph 93% 0.00 in
01:31 62.0 °F 60.3 °F 30.12 in SSE 5.0 mph 9.0 mph 94% 0.00 in
01:36 62.1 °F 60.1 °F 30.12 in SSE 5.0 mph 8.0 mph 93% 0.00 in
01:41 62.1 °F 60.1 °F 30.11 in SE 7.0 mph 8.0 mph 93% 0.00 in
01:46 62.2 °F 60.2 °F 30.11 in SSE 4.0 mph 7.0 mph 93% 0.00 in
01:51 62.3 °F 60.2 °F 30.12 in SSE 6.0 mph 6.0 mph 93% 0.00 in
01:56 62.3 °F 60.2 °F 30.12 in South 3.0 mph 6.0 mph 93% 0.00 in
02:01 62.3 °F 60.2 °F 30.12 in SSW 4.0 mph 7.0 mph 93% 0.00 in
02:06 62.4 °F 60.3 °F 30.12 in SE 1.0 mph 6.0 mph 93% 0.00 in
02:11 62.4 °F 60.3 °F 30.12 in SSE 2.0 mph 7.0 mph 93% 0.00 in
02:16 62.4 °F 60.3 °F 30.12 in South 2.0 mph 5.0 mph 93% 0.00 in
02:21 62.5 °F 60.5 °F 30.12 in SSE 3.0 mph 7.0 mph 93% 0.00 in
02:27 62.6 °F 60.5 °F 30.12 in SE 5.0 mph 7.0 mph 93% 0.00 in
02:32 62.6 °F 60.5 °F 30.12 in SSE 4.0 mph 5.0 mph 93% 0.00 in
02:37 62.7 °F 60.7 °F 30.12 in SSW 3.0 mph 8.0 mph 93% 0.00 in
02:42 62.7 °F 60.7 °F 30.12 in SE 4.0 mph 6.0 mph 93% 0.00 in
02:47 62.8 °F 60.8 °F 30.12 in SSE 5.0 mph 6.0 mph 93% 0.00 in
02:52 62.8 °F 60.8 °F 30.12 in South 3.0 mph 4.0 mph 93% 0.00 in
02:57 62.8 °F 60.8 °F 30.12 in South 6.0 mph 6.0 mph 93% 0.00 in
03:02 62.9 °F 60.8 °F 30.13 in SSW 3.0 mph 6.0 mph 93% 0.00 in
03:07 62.9 °F 60.8 °F 30.13 in SSW 3.0 mph 4.0 mph 93% 0.00 in
03:12 62.9 °F 60.8 °F 30.12 in South 2.0 mph 4.0 mph 93% 0.00 in
03:17 62.9 °F 60.8 °F 30.13 in South 4.0 mph 5.0 mph 93% 0.00 in
03:22 62.9 °F 60.8 °F 30.13 in SSE 3.0 mph 5.0 mph 93% 0.00 in
03:27 62.8 °F 60.8 °F 30.13 in South 4.0 mph 4.0 mph 93% 0.00 in
03:32 62.9 °F 60.8 °F 30.13 in SSW 4.0 mph 4.0 mph 93% 0.00 in
03:37 62.9 °F 60.8 °F 30.13 in SW 2.0 mph 5.0 mph 93% 0.00 in
03:42 62.9 °F 60.8 °F 30.13 in SSE 1.0 mph 4.0 mph 93% 0.00 in
03:47 62.9 °F 60.8 °F 30.13 in South 2.0 mph 3.0 mph 93% 0.00 in
03:52 62.9 °F 60.8 °F 30.13 in South 5.0 mph 5.0 mph 93% 0.00 in
03:57 62.9 °F 60.8 °F 30.12 in South 3.0 mph 4.0 mph 93% 0.00 in
04:02 62.8 °F 60.8 °F 30.13 in SSE 4.0 mph 4.0 mph 93% 0.00 in
04:07 62.8 °F 60.8 °F 30.12 in SSE 3.0 mph 3.0 mph 93% 0.00 in
04:12 62.8 °F 60.8 °F 30.12 in South 2.0 mph 4.0 mph 93% 0.00 in
04:17 62.8 °F 60.8 °F 30.12 in South 3.0 mph 5.0 mph 93% 0.00 in
04:22 62.8 °F 60.8 °F 30.12 in South 2.0 mph 4.0 mph 93% 0.00 in
04:27 62.8 °F 60.8 °F 30.12 in South 1.0 mph 4.0 mph 93% 0.00 in
04:32 62.8 °F 60.8 °F 30.12 in SSW 1.0 mph 4.0 mph 93% 0.00 in
04:37 62.7 °F 60.7 °F 30.12 in SSW 1.0 mph 4.0 mph 93% 0.00 in
04:42 62.7 °F 60.7 °F 30.12 in SSE 3.0 mph 5.0 mph 93% 0.00 in
04:47 62.8 °F 60.8 °F 30.12 in South 3.0 mph 6.0 mph 93% 0.00 in
04:52 62.8 °F 60.8 °F 30.12 in SSE 3.0 mph 4.0 mph 93% 0.00 in
04:57 62.9 °F 60.8 °F 30.12 in SSE 2.0 mph 4.0 mph 93% 0.00 in
05:02 62.9 °F 60.8 °F 30.12 in South 3.0 mph 3.0 mph 93% 0.00 in
05:07 62.9 °F 60.8 °F 30.12 in SSE 3.0 mph 5.0 mph 93% 0.00 in
05:12 63.0 °F 61.0 °F 30.12 in SSE 2.0 mph 3.0 mph 93% 0.00 in
05:17 63.0 °F 61.0 °F 30.12 in SW 1.0 mph 5.0 mph 93% 0.00 in
05:23 63.1 °F 61.0 °F 30.12 in SSW 3.0 mph 3.0 mph 93% 0.00 in
05:28 63.1 °F 61.0 °F 30.12 in Calm   4.0 mph 93% 0.00 in
05:33 63.2 °F 61.2 °F 30.12 in WSW 7.0 mph 7.0 mph 93% 0.00 in
05:38 63.3 °F 61.2 °F 30.12 in SW 2.0 mph 6.0 mph 93% 0.00 in
05:43 63.3 °F 61.2 °F 30.12 in SSW 2.0 mph 6.0 mph 93% 0.00 in
05:48 63.4 °F 61.3 °F 30.12 in South 2.0 mph 5.0 mph 93% 0.00 in
05:53 63.5 °F 61.4 °F 30.12 in SW 3.0 mph 4.0 mph 93% 0.00 in
05:58 63.5 °F 61.4 °F 30.13 in SSW 4.0 mph 5.0 mph 93% 0.00 in
06:03 63.5 °F 61.4 °F 30.13 in SW 4.0 mph 4.0 mph 93% 0.00 in
06:08 63.6 °F 61.5 °F 30.13 in SW 2.0 mph 9.0 mph 93% 0.00 in
06:13 63.7 °F 61.3 °F 30.13 in WSW 5.0 mph 6.0 mph 92% 0.00 in
06:18 63.9 °F 61.5 °F 30.13 in SSW 5.0 mph 6.0 mph 92% 0.00 in
06:23 63.8 °F 61.4 °F 30.13 in WSW 3.0 mph 7.0 mph 92% 0.00 in
06:28 63.8 °F 61.4 °F 30.13 in SW 4.0 mph 5.0 mph 92% 0.00 in
06:33 63.8 °F 61.4 °F 30.13 in SW 2.0 mph 5.0 mph 92% 0.00 in
06:38 63.8 °F 61.4 °F 30.13 in SW 3.0 mph 5.0 mph 92% 0.00 in
06:43 63.7 °F 61.3 °F 30.14 in SW 2.0 mph 3.0 mph 92% 0.00 in
06:48 63.7 °F 61.3 °F 30.14 in WSW 2.0 mph 3.0 mph 92% 0.00 in
06:53 63.7 °F 61.3 °F 30.14 in WSW 5.0 mph 6.0 mph 92% 0.00 in
06:58 63.7 °F 61.3 °F 30.14 in WSW 5.0 mph 6.0 mph 92% 0.00 in
07:03 63.6 °F 61.5 °F 30.14 in SSW 3.0 mph 5.0 mph 93% 0.00 in
07:08 63.5 °F 61.4 °F 30.14 in SW 3.0 mph 4.0 mph 93% 0.00 in
07:13 63.5 °F 61.4 °F 30.14 in SW 2.0 mph 4.0 mph 93% 0.00 in
07:18 63.4 °F 61.3 °F 30.14 in SW 4.0 mph 4.0 mph 93% 0.00 in
07:23 63.4 °F 61.3 °F 30.14 in SW 2.0 mph 5.0 mph 93% 0.00 in
07:28 63.2 °F 61.2 °F 30.14 in SSW 3.0 mph 3.0 mph 93% 0.00 in
07:34 63.2 °F 61.2 °F 30.14 in SW 3.0 mph 4.0 mph 93% 0.00 in
07:39 63.1 °F 61.0 °F 30.14 in South 2.0 mph 4.0 mph 93% 0.00 in
07:44 63.1 °F 61.0 °F 30.15 in SSW 1.0 mph 3.0 mph 93% 0.00 in
07:49 63.1 °F 61.0 °F 30.15 in SSW 2.0 mph 3.0 mph 93% 0.00 in
07:54 63.1 °F 61.0 °F 30.15 in SW 3.0 mph 3.0 mph 93% 0.00 in
07:59 63.2 °F 61.2 °F 30.15 in SW 5.0 mph 5.0 mph 93% 0.00 in
08:04 63.2 °F 61.2 °F 30.15 in South 2.0 mph 4.0 mph 93% 0.00 in
08:09 63.3 °F 61.2 °F 30.15 in SW 2.0 mph 6.0 mph 93% 0.00 in
08:14 63.3 °F 61.2 °F 30.15 in SW 5.0 mph 7.0 mph 93% 0.00 in
08:19 63.3 °F 61.2 °F 30.15 in SW 4.0 mph 6.0 mph 93% 0.00 in
08:24 63.3 °F 61.2 °F 30.15 in SW 3.0 mph 6.0 mph 93% 0.00 in
08:29 63.3 °F 61.2 °F 30.15 in SW 3.0 mph 4.0 mph 93% 0.00 in
08:34 63.3 °F 61.2 °F 30.15 in SW 5.0 mph 6.0 mph 93% 0.00 in
08:39 63.3 °F 61.2 °F 30.15 in SW 5.0 mph 5.0 mph 93% 0.00 in
08:44 63.3 °F 61.2 °F 30.16 in SW 4.0 mph 4.0 mph 93% 0.00 in
08:49 63.3 °F 61.2 °F 30.16 in SW 3.0 mph 5.0 mph 93% 0.00 in
08:54 63.3 °F 61.2 °F 30.16 in SW 5.0 mph 5.0 mph 93% 0.00 in
08:59 63.4 °F 61.3 °F 30.16 in WSW 3.0 mph 6.0 mph 93% 0.00 in
09:04 63.4 °F 61.7 °F 30.16 in WSW 5.0 mph 5.0 mph 94% 0.00 in
09:09 63.5 °F 61.8 °F 30.16 in SW 5.0 mph 5.0 mph 94% 0.00 in
09:14 63.5 °F 61.8 °F 30.17 in SSW 1.0 mph 5.0 mph 94% 0.00 in
09:19 63.5 °F 61.8 °F 30.17 in SW 3.0 mph 5.0 mph 94% 0.00 in
09:24 63.6 °F 61.5 °F 30.17 in SW 3.0 mph 6.0 mph 93% 0.00 in
09:29 63.7 °F 62.0 °F 30.17 in SW 4.0 mph 5.0 mph 94% 0.00 in
09:34 63.7 °F 62.0 °F 30.17 in SW 4.0 mph 6.0 mph 94% 0.00 in
09:39 63.8 °F 61.7 °F 30.17 in SSW 4.0 mph 6.0 mph 93% 0.00 in
09:44 63.9 °F 61.8 °F 30.17 in SW 3.0 mph 4.0 mph 93% 0.00 in
09:49 64.1 °F 62.0 °F 30.17 in SSE 2.0 mph 4.0 mph 93% 0.00 in
09:54 64.2 °F 62.1 °F 30.17 in SW 3.0 mph 4.0 mph 93% 0.00 in
09:59 64.4 °F 62.3 °F 30.17 in SSE 5.0 mph 6.0 mph 93% 0.00 in
10:04 64.5 °F 62.4 °F 30.17 in SSW 7.0 mph 7.0 mph 93% 0.00 in
10:09 64.7 °F 62.3 °F 30.17 in SSW 5.0 mph 6.0 mph 92% 0.00 in
10:15 65.0 °F 62.6 °F 30.17 in South 4.0 mph 6.0 mph 92% 0.00 in
10:20 65.2 °F 62.8 °F 30.17 in SW 5.0 mph 7.0 mph 92% 0.00 in
10:25 65.8 °F 63.4 °F 30.17 in SW 4.0 mph 7.0 mph 92% 0.00 in
10:30 66.1 °F 63.1 °F 30.17 in South 3.0 mph 10.0 mph 90% 0.00 in
10:35 66.2 °F 63.2 °F 30.17 in SSW 8.0 mph 9.0 mph 90% 0.00 in
10:40 66.0 °F 62.3 °F 30.17 in SW 6.0 mph 11.0 mph 88% 0.00 in
10:45 66.3 °F 62.6 °F 30.17 in SW 5.0 mph 8.0 mph 88% 0.00 in
10:50 66.6 °F 62.9 °F 30.17 in South 5.0 mph 8.0 mph 88% 0.00 in
10:55 67.0 °F 62.3 °F 30.17 in SSW 9.0 mph 9.0 mph 85% 0.00 in
11:00 67.3 °F 62.6 °F 30.18 in WSW 5.0 mph 8.0 mph 85% 0.00 in
11:05 67.0 °F 61.7 °F 30.18 in SW 6.0 mph 11.0 mph 83% 0.00 in
11:10 67.0 °F 62.3 °F 30.18 in SSW 5.0 mph 9.0 mph 85% 0.00 in
11:15 67.1 °F 62.1 °F 30.18 in SW 6.0 mph 8.0 mph 84% 0.00 in
11:20 67.0 °F 62.0 °F 30.18 in WSW 6.0 mph 7.0 mph 84% 0.00 in
11:25 68.3 °F 63.6 °F 30.18 in South 7.0 mph 7.0 mph 85% 0.00 in
11:30 68.7 °F 62.6 °F 30.18 in SSW 7.0 mph 8.0 mph 81% 0.00 in
11:35 69.2 °F 62.8 °F 30.18 in South 7.0 mph 9.0 mph 80% 0.00 in
11:37 69.3 °F 62.9 °F 30.18 in South 8.0 mph 9.0 mph 80% 0.00 in
11:42 69.0 °F 61.9 °F 30.18 in SW 7.0 mph 10.0 mph 78% 0.00 in
11:47 68.7 °F 62.3 °F 30.18 in SE 6.0 mph 7.0 mph 80% 0.00 in
11:52 69.1 °F 63.0 °F 30.18 in SSW 4.0 mph 10.0 mph 81% 0.00 in
11:57 69.0 °F 62.2 °F 30.18 in SW 3.0 mph 7.0 mph 79% 0.00 in
12:02 69.0 °F 61.9 °F 30.18 in West 6.0 mph 6.0 mph 78% 0.00 in
12:07 69.4 °F 62.6 °F 30.17 in South 9.0 mph 11.0 mph 79% 0.00 in
12:12 70.0 °F 62.5 °F 30.17 in WSW 7.0 mph 10.0 mph 77% 0.00 in
12:17 70.4 °F 62.1 °F 30.18 in SE 6.0 mph 8.0 mph 75% 0.00 in
12:22 70.2 °F 61.9 °F 30.17 in SW 4.0 mph 8.0 mph 75% 0.00 in
12:27 70.3 °F 62.4 °F 30.17 in SW 3.0 mph 7.0 mph 76% 0.00 in
12:33 71.1 °F 63.2 °F 30.17 in SE 8.0 mph 10.0 mph 76% 0.00 in
12:38 70.7 °F 62.4 °F 30.17 in SE 8.0 mph 9.0 mph 75% 0.00 in
12:43 70.3 °F 62.4 °F 30.17 in SSW 2.0 mph 7.0 mph 76% 0.00 in
12:48 71.3 °F 63.3 °F 30.17 in South 5.0 mph 11.0 mph 76% 0.00 in
12:53 72.0 °F 63.3 °F 30.17 in SSW 4.0 mph 7.0 mph 74% 0.00 in
12:58 71.6 °F 62.5 °F 30.17 in WSW 6.0 mph 9.0 mph 73% 0.00 in
13:03 71.0 °F 63.1 °F 30.17 in South 3.0 mph 7.0 mph 76% 0.00 in
13:08 71.3 °F 62.2 °F 30.17 in SSW 5.0 mph 8.0 mph 73% 0.00 in
13:13 71.7 °F 63.0 °F 30.17 in SSW 12.0 mph 12.0 mph 74% 0.00 in
13:18 72.0 °F 63.3 °F 30.17 in ESE 4.0 mph 8.0 mph 74% 0.00 in
13:23 72.1 °F 62.2 °F 30.17 in SW 7.0 mph 9.0 mph 71% 0.00 in
13:28 71.6 °F 62.9 °F 30.17 in SSW 6.0 mph 10.0 mph 74% 0.00 in
13:33 72.2 °F 62.3 °F 30.17 in WSW 9.0 mph 9.0 mph 71% 0.00 in
13:38 72.2 °F 63.5 °F 30.17 in SSW 7.0 mph 12.0 mph 74% 0.00 in
13:43 72.6 °F 62.7 °F 30.17 in SW 11.0 mph 11.0 mph 71% 0.00 in
13:49 72.1 °F 61.8 °F 30.17 in SW 8.0 mph 9.0 mph 70% 0.00 in
13:54 72.3 °F 62.4 °F 30.16 in South 2.0 mph 11.0 mph 71% 0.00 in
13:59 72.6 °F 62.7 °F 30.16 in South 7.0 mph 10.0 mph 71% 0.00 in
14:04 72.8 °F 62.9 °F 30.16 in WSW 6.0 mph 10.0 mph 71% 0.00 in
14:09 71.9 °F 61.6 °F 30.16 in SW 4.0 mph 11.0 mph 70% 0.00 in
14:14 71.5 °F 62.4 °F 30.16 in WNW 3.0 mph 7.0 mph 73% 0.00 in
14:19 72.4 °F 62.5 °F 30.15 in SW 5.0 mph 9.0 mph 71% 0.00 in
14:24 72.9 °F 62.5 °F 30.15 in SSE 10.0 mph 10.0 mph 70% 0.00 in
14:29 72.4 °F 62.1 °F 30.15 in SSE 13.0 mph 13.0 mph 70% 0.00 in
14:34 73.2 °F 63.6 °F 30.15 in SSW 6.0 mph 11.0 mph 72% 0.00 in
14:39 73.7 °F 62.5 °F 30.15 in SSW 6.0 mph 9.0 mph 68% 0.00 in
14:44 74.1 °F 61.2 °F 30.15 in SSW 3.0 mph 9.0 mph 64% 0.00 in
14:49 73.5 °F 61.9 °F 30.14 in SW 11.0 mph 11.0 mph 67% 0.00 in
14:54 73.1 °F 61.5 °F 30.14 in SSW 5.0 mph 10.0 mph 67% 0.00 in
15:00 73.5 °F 61.5 °F 30.14 in WSW 7.0 mph 10.0 mph 66% 0.00 in
15:05 74.3 °F 60.5 °F 30.14 in WSW 6.0 mph 7.0 mph 62% 0.00 in
15:10 74.4 °F 60.5 °F 30.13 in South 5.0 mph 8.0 mph 62% 0.00 in
15:15 74.6 °F 61.2 °F 30.13 in SSW 6.0 mph 11.0 mph 63% 0.00 in
15:20 73.9 °F 60.5 °F 30.13 in SW 6.0 mph 7.0 mph 63% 0.00 in
15:25 74.5 °F 62.0 °F 30.13 in WNW 1.0 mph 9.0 mph 65% 0.00 in
15:30 75.1 °F 61.2 °F 30.13 in SSW 5.0 mph 8.0 mph 62% 0.00 in
15:35 75.4 °F 60.1 °F 30.13 in WSW 5.0 mph 11.0 mph 59% 0.00 in
15:40 74.9 °F 61.0 °F 30.12 in SSE 6.0 mph 10.0 mph 62% 0.00 in
15:45 74.9 °F 60.6 °F 30.12 in SW 5.0 mph 11.0 mph 61% 0.00 in
15:50 75.3 °F 60.5 °F 30.12 in SSW 9.0 mph 13.0 mph 60% 0.00 in
15:55 75.3 °F 60.5 °F 30.12 in SSE 8.0 mph 10.0 mph 60% 0.00 in
16:00 75.4 °F 61.5 °F 30.12 in SW 11.0 mph 11.0 mph 62% 0.00 in
16:05 75.5 °F 59.7 °F 30.12 in South 7.0 mph 10.0 mph 58% 0.00 in
16:10 75.5 °F 59.7 °F 30.12 in SW 3.0 mph 7.0 mph 58% 0.00 in
16:15 75.4 °F 59.6 °F 30.12 in SW 6.0 mph 10.0 mph 58% 0.00 in
16:20 75.1 °F 60.8 °F 30.12 in SSE 11.0 mph 11.0 mph 61% 0.00 in
16:25 75.2 °F 59.4 °F 30.11 in SSE 3.0 mph 7.0 mph 58% 0.00 in
16:30 75.4 °F 59.1 °F 30.11 in SSW 8.0 mph 11.0 mph 57% 0.00 in
16:36 75.6 °F 59.8 °F 30.11 in South 6.0 mph 10.0 mph 58% 0.00 in
16:41 75.5 °F 59.2 °F 30.11 in SE 7.0 mph 11.0 mph 57% 0.00 in
16:46 75.6 °F 58.8 °F 30.11 in SSE 8.0 mph 11.0 mph 56% 0.00 in
16:51 75.7 °F 58.4 °F 30.11 in South 8.0 mph 10.0 mph 55% 0.00 in
16:56 75.7 °F 57.9 °F 30.11 in SSE 8.0 mph 8.0 mph 54% 0.00 in
17:01 75.9 °F 58.1 °F 30.11 in SW 6.0 mph 9.0 mph 54% 0.00 in
17:06 76.2 °F 58.4 °F 30.10 in SSW 2.0 mph 8.0 mph 54% 0.00 in
17:11 76.1 °F 56.7 °F 30.10 in SSW 7.0 mph 10.0 mph 51% 0.00 in
17:16 76.2 °F 57.3 °F 30.10 in WSW 4.0 mph 7.0 mph 52% 0.00 in
17:21 76.1 °F 57.2 °F 30.10 in SW 11.0 mph 11.0 mph 52% 0.00 in
17:26 76.1 °F 55.0 °F 30.10 in WSW 5.0 mph 8.0 mph 48% 0.00 in
17:31 76.2 °F 56.2 °F 30.10 in WSW 5.0 mph 9.0 mph 50% 0.00 in
17:36 76.2 °F 56.2 °F 30.10 in SW 7.0 mph 9.0 mph 50% 0.00 in
17:41 75.9 °F 56.0 °F 30.10 in SSW 5.0 mph 12.0 mph 50% 0.00 in
17:46 76.1 °F 56.1 °F 30.09 in SW 7.0 mph 11.0 mph 50% 0.00 in
17:51 76.2 °F 57.3 °F 30.09 in SW 5.0 mph 5.0 mph 52% 0.00 in
17:56 76.6 °F 57.1 °F 30.09 in SW 8.0 mph 10.0 mph 51% 0.00 in
18:01 76.4 °F 56.4 °F 30.09 in SSE 4.0 mph 7.0 mph 50% 0.00 in
18:06 76.3 °F 56.3 °F 30.09 in SSW 7.0 mph 10.0 mph 50% 0.00 in
18:11 76.2 °F 57.3 °F 30.09 in WSW 3.0 mph 7.0 mph 52% 0.00 in
18:17 76.3 °F 56.9 °F 30.09 in SSW 3.0 mph 7.0 mph 51% 0.00 in
18:22 76.2 °F 56.8 °F 30.09 in SSW 3.0 mph 6.0 mph 51% 0.00 in
18:27 76.4 °F 56.4 °F 30.09 in SSW 2.0 mph 9.0 mph 50% 0.00 in
18:32 76.1 °F 56.7 °F 30.09 in SW 6.0 mph 7.0 mph 51% 0.00 in
18:37 75.8 °F 56.9 °F 30.09 in WSW 6.0 mph 8.0 mph 52% 0.00 in
18:42 75.7 °F 57.4 °F 30.09 in SW 4.0 mph 9.0 mph 53% 0.00 in
18:47 75.8 °F 57.5 °F 30.09 in SSW 4.0 mph 6.0 mph 53% 0.00 in
18:52 75.7 °F 56.8 °F 30.09 in SSW 5.0 mph 8.0 mph 52% 0.00 in
18:57 75.5 °F 57.7 °F 30.09 in SSW 4.0 mph 7.0 mph 54% 0.00 in
19:02 75.3 °F 58.0 °F 30.09 in SW 3.0 mph 5.0 mph 55% 0.00 in
19:07 75.1 °F 58.3 °F 30.09 in SW 2.0 mph 5.0 mph 56% 0.00 in
19:12 75.0 °F 58.3 °F 30.09 in WSW 3.0 mph 3.0 mph 56% 0.00 in
19:17 74.8 °F 58.6 °F 30.09 in SW 3.0 mph 5.0 mph 57% 0.00 in
19:22 74.6 °F 57.9 °F 30.10 in SW 2.0 mph 3.0 mph 56% 0.00 in
19:27 74.4 °F 58.2 °F 30.09 in SW 1.0 mph 2.0 mph 57% 0.00 in
19:32 74.3 °F 58.1 °F 30.10 in SW 1.0 mph 1.0 mph 57% 0.00 in
19:37 74.0 °F 57.8 °F 30.10 in Calm   1.0 mph 57% 0.00 in
19:42 73.6 °F 57.9 °F 30.09 in Calm   2.0 mph 58% 0.00 in
19:47 73.0 °F 57.8 °F 30.09 in Calm   1.0 mph 59% 0.00 in
19:52 72.4 °F 57.3 °F 30.10 in SW 1.0 mph 1.0 mph 59% 0.00 in
19:57 71.7 °F 57.5 °F 30.10 in SW 1.0 mph 1.0 mph 61% 0.00 in
20:02 71.1 °F 57.4 °F 30.10 in SW 1.0 mph 1.0 mph 62% 0.00 in
20:07 70.7 °F 57.5 °F 30.09 in Calm     63% 0.00 in
20:12 70.1 °F 56.9 °F 30.09 in Calm     63% 0.00 in
20:17 69.4 °F 56.7 °F 30.10 in Calm     64% 0.00 in
20:22 68.6 °F 56.8 °F 30.10 in Calm     66% 0.00 in
20:27 67.7 °F 56.8 °F 30.10 in Calm     68% 0.00 in
20:32 67.9 °F 57.0 °F 30.10 in SE 1.0 mph 1.0 mph 68% 0.00 in
20:37 68.2 °F 57.2 °F 30.10 in East 2.0 mph 2.0 mph 68% 0.00 in
20:42 68.2 °F 57.2 °F 30.10 in East 2.0 mph 3.0 mph 68% 0.00 in
20:47 68.4 °F 57.4 °F 30.10 in East 1.0 mph 2.0 mph 68% 0.00 in
20:52 68.6 °F 57.2 °F 30.10 in East 1.0 mph 1.0 mph 67% 0.00 in
20:57 68.5 °F 57.1 °F 30.10 in East 1.0 mph 2.0 mph 67% 0.00 in
21:02 68.2 °F 56.8 °F 30.10 in East 1.0 mph 2.0 mph 67% 0.00 in
21:07 67.9 °F 57.0 °F 30.10 in East 1.0 mph 2.0 mph 68% 0.00 in
21:12 67.6 °F 57.1 °F 30.10 in East 1.0 mph 1.0 mph 69% 0.00 in
21:18 67.7 °F 57.2 °F 30.11 in ESE 1.0 mph 1.0 mph 69% 0.00 in
21:23 67.9 °F 57.0 °F 30.11 in SE 1.0 mph 1.0 mph 68% 0.00 in
21:28 67.9 °F 57.0 °F 30.11 in SE 2.0 mph 2.0 mph 68% 0.00 in
21:33 68.0 °F 57.1 °F 30.11 in SE 1.0 mph 2.0 mph 68% 0.00 in
21:38 67.8 °F 56.9 °F 30.11 in SE 2.0 mph 2.0 mph 68% 0.00 in
21:43 67.6 °F 56.7 °F 30.12 in SE 1.0 mph 2.0 mph 68% 0.00 in
21:48 67.2 °F 56.7 °F 30.12 in SE 1.0 mph 1.0 mph 69% 0.00 in
21:54 67.0 °F 56.9 °F 30.12 in SE 1.0 mph 1.0 mph 70% 0.00 in
21:59 66.9 °F 56.8 °F 30.12 in SE 1.0 mph 1.0 mph 70% 0.00 in
22:04 66.7 °F 56.6 °F 30.12 in SE 1.0 mph 1.0 mph 70% 0.00 in
22:09 66.7 °F 56.6 °F 30.12 in SE 2.0 mph 2.0 mph 70% 0.00 in
22:14 66.6 °F 56.9 °F 30.13 in SE 2.0 mph 2.0 mph 71% 0.00 in
22:19 66.6 °F 56.9 °F 30.13 in SSE 1.0 mph 2.0 mph 71% 0.00 in
22:24 66.7 °F 57.0 °F 30.13 in South 2.0 mph 3.0 mph 71% 0.00 in
22:29 66.8 °F 56.7 °F 30.13 in SSE 1.0 mph 2.0 mph 70% 0.00 in
22:34 66.7 °F 57.0 °F 30.13 in SSE 2.0 mph 2.0 mph 71% 0.00 in
22:39 66.6 °F 56.9 °F 30.13 in SSE 2.0 mph 3.0 mph 71% 0.00 in
22:44 66.4 °F 56.7 °F 30.13 in SSE 2.0 mph 3.0 mph 71% 0.00 in
22:49 66.2 °F 56.9 °F 30.13 in SSE 3.0 mph 3.0 mph 72% 0.00 in
22:54 65.9 °F 57.0 °F 30.13 in SSE 2.0 mph 2.0 mph 73% 0.00 in
22:59 65.8 °F 56.9 °F 30.13 in SSE 2.0 mph 3.0 mph 73% 0.00 in
23:04 65.6 °F 57.1 °F 30.13 in SSE 3.0 mph 3.0 mph 74% 0.00 in
23:09 65.6 °F 57.1 °F 30.13 in South 1.0 mph 3.0 mph 74% 0.00 in
23:14 65.6 °F 57.1 °F 30.13 in SSE 2.0 mph 3.0 mph 74% 0.00 in
23:19 65.6 °F 57.5 °F 30.13 in SE 2.0 mph 3.0 mph 75% 0.00 in
23:24 65.2 °F 57.1 °F 30.13 in SSE 2.0 mph 3.0 mph 75% 0.00 in
23:29 64.4 °F 56.7 °F 30.13 in ESE 2.0 mph 2.0 mph 76% 0.00 in
23:34 63.6 °F 56.6 °F 30.14 in SE 1.0 mph 3.0 mph 78% 0.00 in
23:40 63.4 °F 56.8 °F 30.14 in SSE 1.0 mph 1.0 mph 79% 0.00 in
23:45 63.4 °F 57.1 °F 30.14 in SSE 2.0 mph 2.0 mph 80% 0.00 in
23:50 63.5 °F 57.2 °F 30.14 in SE 2.0 mph 3.0 mph 80% 0.00 in
23:55 63.8 °F 57.5 °F 30.14 in SSE 2.0 mph 2.0 mph 80% 0.00 in
Compliments of Weather Underground